Time;durP1;ratioP1;P1;durP2;ratioP2;P2;SDS_P1;SDS_P2;PMS_P1;PMS_P2;Temp;Humidity;BMP_temperature;BMP_pressure;BME280_temperature;BME280_humidity;BME280_pressure;Samples;Min_cycle;Max_cycle;Signal;HPM_P1;HPM_P2
2023/12/14 00:00:54;;;;;;;11.87;5.53;;;;;;;;;;5075514;28;20218;-74
2023/12/14 00:03:20;;;;;;;12.53;6.20;;;;;;;;;;5077733;28;20665;-78
2023/12/14 00:05:46;;;;;;;14.63;6.77;;;;;;;;;;5076678;28;20297;-76
2023/12/14 00:08:12;;;;;;;13.30;6.47;;;;;;;;;;5070283;28;20298;-77
2023/12/14 00:10:38;;;;;;;10.17;5.93;;;;;;;;;;5073009;28;20321;-76
2023/12/14 00:13:06;;;;;;;12.20;6.63;;;;;;;;;;5070710;28;20225;-74
2023/12/14 00:15:32;;;;;;;13.17;6.70;;;;;;;;;;5063240;28;20233;-74
2023/12/14 00:17:58;;;;;;;13.10;6.30;;;;;;;;;;5079718;28;20182;-74
2023/12/14 00:20:24;;;;;;;13.57;6.10;;;;;;;;;;5077883;28;20203;-76
2023/12/14 00:22:50;;;;;;;14.07;6.10;;;;;;;;;;5082422;28;20289;-74
2023/12/14 00:25:16;;;;;;;13.20;6.97;;;;;;;;;;5076406;28;20305;-76
2023/12/14 00:27:42;;;;;;;11.27;6.27;;;;;;;;;;5075875;28;20218;-76
2023/12/14 00:30:08;;;;;;;10.77;5.60;;;;;;;;;;5078259;28;20237;-76
2023/12/14 00:32:35;;;;;;;12.50;6.20;;;;;;;;;;5071660;28;20183;-74
2023/12/14 00:35:01;;;;;;;13.90;6.90;;;;;;;;;;5078282;28;20210;-75
2023/12/14 00:37:27;;;;;;;13.23;6.67;;;;;;;;;;5075976;28;20289;-76
2023/12/14 00:39:54;;;;;;;11.57;6.97;;;;;;;;;;5082442;28;20293;-75
2023/12/14 00:42:20;;;;;;;15.33;7.07;;;;;;;;;;5078048;28;20638;-76
2023/12/14 00:44:46;;;;;;;12.53;7.23;;;;;;;;;;5079600;28;20193;-76
2023/12/14 00:47:13;;;;;;;13.23;6.43;;;;;;;;;;5074755;28;20238;-76
2023/12/14 00:49:39;;;;;;;11.90;6.77;;;;;;;;;;5078070;28;20211;-76
2023/12/14 00:52:05;;;;;;;14.97;6.43;;;;;;;;;;5077279;28;20683;-75
2023/12/14 00:54:31;;;;;;;12.07;6.67;;;;;;;;;;5076569;28;20226;-75
2023/12/14 00:56:57;;;;;;;12.00;6.53;;;;;;;;;;5077746;28;20711;-74
2023/12/14 00:59:23;;;;;;;15.70;6.23;;;;;;;;;;5077151;28;20242;-76
2023/12/14 01:01:49;;;;;;;15.17;6.93;;;;;;;;;;5074569;28;20293;-78
2023/12/14 01:04:15;;;;;;;11.37;5.80;;;;;;;;;;5073588;28;20214;-76
2023/12/14 01:06:41;;;;;;;11.73;6.80;;;;;;;;;;5080185;28;20309;-76
2023/12/14 01:09:08;;;;;;;11.67;6.23;;;;;;;;;;5073015;28;20728;-76
2023/12/14 01:11:34;;;;;;;10.73;5.67;;;;;;;;;;5076307;28;20183;-76
2023/12/14 01:14:00;;;;;;;13.03;5.63;;;;;;;;;;5078121;28;20225;-77
2023/12/14 01:16:29;;;;;;;11.70;5.67;;;;;;;;;;5079287;28;20210;-79
2023/12/14 01:18:55;;;;;;;10.70;5.63;;;;;;;;;;5074512;28;20739;-75
2023/12/14 01:21:21;;;;;;;12.10;5.40;;;;;;;;;;5074197;28;20175;-75
2023/12/14 01:23:47;;;;;;;11.57;6.17;;;;;;;;;;5079713;28;20225;-77
2023/12/14 01:26:13;;;;;;;12.07;6.10;;;;;;;;;;5077663;28;20214;-76
2023/12/14 01:28:39;;;;;;;8.97;5.30;;;;;;;;;;5078873;28;20210;-76
2023/12/14 01:31:05;;;;;;;9.90;5.17;;;;;;;;;;5071025;28;20268;-74
2023/12/14 01:33:31;;;;;;;10.17;4.90;;;;;;;;;;5079620;28;20223;-75
2023/12/14 01:35:57;;;;;;;9.00;5.53;;;;;;;;;;5080341;28;20202;-75
2023/12/14 01:38:23;;;;;;;8.80;4.47;;;;;;;;;;5074113;28;20340;-76
2023/12/14 01:40:49;;;;;;;7.67;4.73;;;;;;;;;;5081756;28;20297;-76
2023/12/14 01:43:15;;;;;;;9.33;4.63;;;;;;;;;;5080545;28;20685;-76
2023/12/14 01:45:41;;;;;;;9.50;4.57;;;;;;;;;;5083398;28;20317;-76
2023/12/14 01:48:07;;;;;;;8.23;4.80;;;;;;;;;;5083322;28;20194;-77
2023/12/14 01:50:33;;;;;;;8.53;4.20;;;;;;;;;;5085197;28;20550;-80
2023/12/14 01:52:59;;;;;;;6.27;4.20;;;;;;;;;;5081977;28;20210;-76
2023/12/14 01:55:26;;;;;;;6.57;4.17;;;;;;;;;;5079180;28;20202;-76
2023/12/14 01:57:52;;;;;;;8.83;4.20;;;;;;;;;;5079763;28;20273;-76
2023/12/14 02:00:25;;;;;;;6.23;3.70;;;;;;;;;;5082075;28;20226;-81
2023/12/14 02:02:52;;;;;;;8.87;4.60;;;;;;;;;;5078566;28;20170;-77
2023/12/14 02:05:18;;;;;;;6.53;3.90;;;;;;;;;;5078017;28;20219;-77
2023/12/14 02:07:44;;;;;;;6.27;3.47;;;;;;;;;;5062279;28;20215;-76
2023/12/14 02:10:10;;;;;;;10.23;4.33;;;;;;;;;;5079976;28;20207;-76
2023/12/14 02:12:36;;;;;;;8.50;3.90;;;;;;;;;;5082261;28;20214;-77
2023/12/14 02:15:02;;;;;;;6.43;3.70;;;;;;;;;;5087731;28;20187;-78
2023/12/14 02:17:28;;;;;;;12.10;4.87;;;;;;;;;;5078376;28;20207;-76
2023/12/14 02:19:54;;;;;;;7.60;4.43;;;;;;;;;;5082282;28;20207;-77
2023/12/14 02:22:20;;;;;;;11.73;4.63;;;;;;;;;;5080155;28;20256;-77
2023/12/14 02:24:46;;;;;;;7.37;4.00;;;;;;;;;;5070906;28;20732;-76
2023/12/14 02:27:12;;;;;;;10.43;5.13;;;;;;;;;;5083458;28;20212;-74
2023/12/14 02:29:40;;;;;;;8.57;5.07;;;;;;;;;;5077099;28;20540;-74
2023/12/14 02:32:06;;;;;;;10.63;4.90;;;;;;;;;;5076712;28;20241;-75
2023/12/14 02:34:32;;;;;;;8.00;4.23;;;;;;;;;;5082313;28;20699;-77
2023/12/14 02:36:58;;;;;;;10.30;4.80;;;;;;;;;;5076515;28;20302;-76
2023/12/14 02:39:24;;;;;;;9.00;5.10;;;;;;;;;;5082062;28;20248;-77
2023/12/14 02:41:50;;;;;;;9.37;5.63;;;;;;;;;;5082006;28;20182;-76
2023/12/14 02:44:16;;;;;;;11.50;5.50;;;;;;;;;;5076368;28;20229;-76
2023/12/14 02:46:42;;;;;;;8.27;5.10;;;;;;;;;;5077153;28;20215;-77
2023/12/14 02:49:08;;;;;;;8.97;4.83;;;;;;;;;;5078545;28;20214;-76
2023/12/14 02:51:34;;;;;;;8.10;4.83;;;;;;;;;;5077264;28;20211;-76
2023/12/14 02:54:00;;;;;;;8.13;4.57;;;;;;;;;;5081706;28;20179;-77
2023/12/14 02:56:26;;;;;;;7.33;4.70;;;;;;;;;;5078255;28;20226;-78
2023/12/14 02:58:53;;;;;;;10.53;5.50;;;;;;;;;;5082869;28;20217;-76
2023/12/14 03:01:21;;;;;;;8.50;4.73;;;;;;;;;;5067949;28;20585;-78
2023/12/14 03:03:47;;;;;;;9.67;5.33;;;;;;;;;;5078471;28;20708;-78
2023/12/14 03:06:13;;;;;;;7.80;4.83;;;;;;;;;;5078644;28;20585;-79
2023/12/14 03:08:39;;;;;;;7.90;4.90;;;;;;;;;;5077429;28;20167;-79
2023/12/14 03:11:05;;;;;;;10.93;5.63;;;;;;;;;;5075507;28;20267;-78
2023/12/14 03:13:31;;;;;;;10.13;5.20;;;;;;;;;;5080807;28;20241;-77
2023/12/14 03:15:57;;;;;;;8.17;4.87;;;;;;;;;;5058453;28;20846;-74
2023/12/14 03:18:24;;;;;;;10.13;4.93;;;;;;;;;;5074480;28;20601;-76
2023/12/14 03:20:50;;;;;;;9.53;4.90;;;;;;;;;;5083743;28;20174;-77
2023/12/14 03:23:16;;;;;;;10.17;5.30;;;;;;;;;;5075096;28;20293;-76
2023/12/14 03:25:42;;;;;;;9.57;5.30;;;;;;;;;;5081481;28;20772;-78
2023/12/14 03:28:09;;;;;;;8.00;5.87;;;;;;;;;;5078166;28;20226;-79
2023/12/14 03:30:35;;;;;;;10.77;5.67;;;;;;;;;;5077492;28;20286;-75
2023/12/14 03:33:01;;;;;;;13.07;6.40;;;;;;;;;;5080325;28;20181;-75
2023/12/14 03:35:27;;;;;;;10.33;5.20;;;;;;;;;;5077112;28;20225;-77
2023/12/14 03:37:53;;;;;;;12.10;5.33;;;;;;;;;;5068564;28;20199;-77
2023/12/14 03:40:19;;;;;;;12.10;6.43;;;;;;;;;;5077484;28;20221;-78
2023/12/14 03:42:45;;;;;;;9.23;5.07;;;;;;;;;;5075384;28;20211;-80
2023/12/14 03:45:11;;;;;;;11.60;6.33;;;;;;;;;;5077745;28;20198;-79
2023/12/14 03:47:37;;;;;;;8.83;5.23;;;;;;;;;;5081707;28;20171;-80
2023/12/14 03:50:03;;;;;;;11.43;5.50;;;;;;;;;;5073873;28;20199;-76
2023/12/14 03:52:31;;;;;;;10.47;5.37;;;;;;;;;;5078971;28;20242;-75
2023/12/14 03:54:57;;;;;;;9.87;5.30;;;;;;;;;;5078042;28;20217;-75
2023/12/14 03:57:23;;;;;;;10.60;5.30;;;;;;;;;;5076554;28;20649;-76
2023/12/14 03:59:49;;;;;;;8.43;5.53;;;;;;;;;;5068285;28;20637;-78
2023/12/14 04:02:15;;;;;;;7.37;4.60;;;;;;;;;;5075215;28;20210;-77
2023/12/14 04:04:41;;;;;;;9.50;5.00;;;;;;;;;;5073805;28;20203;-77
2023/12/14 04:07:07;;;;;;;8.63;4.33;;;;;;;;;;5079683;28;20215;-76
2023/12/14 04:09:33;;;;;;;9.50;4.67;;;;;;;;;;5075819;28;20264;-77
2023/12/14 04:11:59;;;;;;;10.73;4.50;;;;;;;;;;5077605;28;20181;-76
2023/12/14 04:14:25;;;;;;;6.53;3.97;;;;;;;;;;5076153;28;20627;-76
2023/12/14 04:16:51;;;;;;;5.07;3.77;;;;;;;;;;5070802;28;20218;-78
2023/12/14 04:19:17;;;;;;;7.43;4.03;;;;;;;;;;5076326;28;20272;-77
2023/12/14 04:21:43;;;;;;;8.70;4.40;;;;;;;;;;5077225;28;20206;-76
2023/12/14 04:24:09;;;;;;;7.37;3.83;;;;;;;;;;5075371;28;20175;-76
2023/12/14 04:26:35;;;;;;;6.90;4.33;;;;;;;;;;5075577;28;20222;-74
2023/12/14 04:29:01;;;;;;;8.73;4.10;;;;;;;;;;5070011;28;20211;-76
2023/12/14 04:31:27;;;;;;;6.97;4.17;;;;;;;;;;5072165;28;20730;-75
2023/12/14 04:33:53;;;;;;;8.93;4.43;;;;;;;;;;5076775;28;20203;-74
2023/12/14 04:36:19;;;;;;;5.97;3.90;;;;;;;;;;5075229;28;20202;-75
2023/12/14 04:38:46;;;;;;;5.93;3.70;;;;;;;;;;5074230;28;20178;-75
2023/12/14 04:41:12;;;;;;;7.50;4.33;;;;;;;;;;5079585;28;20201;-75
2023/12/14 04:43:38;;;;;;;9.37;4.63;;;;;;;;;;5072919;28;20233;-75
2023/12/14 04:46:06;;;;;;;7.53;4.87;;;;;;;;;;5077499;28;20210;-77
2023/12/14 04:48:32;;;;;;;9.10;4.47;;;;;;;;;;5051126;28;20280;-75
2023/12/14 04:50:58;;;;;;;10.53;5.07;;;;;;;;;;5079193;28;20572;-73
2023/12/14 04:53:24;;;;;;;10.53;4.70;;;;;;;;;;5076351;28;20205;-75
2023/12/14 04:55:50;;;;;;;5.93;4.07;;;;;;;;;;5072322;28;20716;-75
2023/12/14 04:58:16;;;;;;;7.30;4.90;;;;;;;;;;5076594;28;20198;-75
2023/12/14 05:00:42;;;;;;;7.43;4.10;;;;;;;;;;5071101;28;20230;-76
2023/12/14 05:03:08;;;;;;;10.00;4.47;;;;;;;;;;5073677;28;20728;-76
2023/12/14 05:05:34;;;;;;;10.03;4.73;;;;;;;;;;5071934;28;20213;-73
2023/12/14 05:08:00;;;;;;;7.57;4.20;;;;;;;;;;5078091;28;20199;-75
2023/12/14 05:10:26;;;;;;;10.53;5.00;;;;;;;;;;5078334;28;20404;-75
2023/12/14 05:12:52;;;;;;;7.20;4.50;;;;;;;;;;5080341;28;20211;-74
2023/12/14 05:15:18;;;;;;;8.93;5.07;;;;;;;;;;5080844;28;20248;-75
2023/12/14 05:17:45;;;;;;;10.43;5.47;;;;;;;;;;5080344;28;20294;-76
2023/12/14 05:20:11;;;;;;;9.37;4.60;;;;;;;;;;5081557;28;20207;-74
2023/12/14 05:22:38;;;;;;;6.27;4.17;;;;;;;;;;5075344;28;20203;-79
2023/12/14 05:25:04;;;;;;;10.13;4.77;;;;;;;;;;5077147;28;20752;-74
2023/12/14 05:27:30;;;;;;;7.57;4.90;;;;;;;;;;5079846;28;20262;-75
2023/12/14 05:29:56;;;;;;;9.60;4.03;;;;;;;;;;5076367;28;20170;-74
2023/12/14 05:32:22;;;;;;;10.23;5.63;;;;;;;;;;5079001;28;20207;-75
2023/12/14 05:34:48;;;;;;;11.40;4.67;;;;;;;;;;5078286;28;20217;-75
2023/12/14 05:37:14;;;;;;;11.03;5.43;;;;;;;;;;5080007;28;20213;-75
2023/12/14 05:39:45;;;;;;;9.23;4.90;;;;;;;;;;5079961;28;20203;-75
2023/12/14 05:42:11;;;;;;;11.00;5.07;;;;;;;;;;5076797;28;20175;-75
2023/12/14 05:44:37;;;;;;;7.23;4.30;;;;;;;;;;5078925;28;20171;-75
2023/12/14 05:47:03;;;;;;;7.33;4.37;;;;;;;;;;5081447;28;20221;-75
2023/12/14 05:49:29;;;;;;;9.03;5.03;;;;;;;;;;5076839;28;20317;-74
2023/12/14 05:51:55;;;;;;;8.73;4.50;;;;;;;;;;5077896;28;20203;-76
2023/12/14 05:54:21;;;;;;;6.50;4.33;;;;;;;;;;5081933;28;20718;-75
2023/12/14 05:56:47;;;;;;;7.97;4.37;;;;;;;;;;5073801;28;20256;-76
2023/12/14 05:59:13;;;;;;;8.07;4.60;;;;;;;;;;5071332;28;20583;-74
2023/12/14 06:01:39;;;;;;;9.93;4.80;;;;;;;;;;5083660;28;20215;-77
2023/12/14 06:04:05;;;;;;;8.80;4.40;;;;;;;;;;5076370;28;20684;-77
2023/12/14 06:06:31;;;;;;;7.20;4.30;;;;;;;;;;5080738;28;20359;-77
2023/12/14 06:08:57;;;;;;;7.60;4.73;;;;;;;;;;5071683;28;20210;-77
2023/12/14 06:11:23;;;;;;;8.00;4.80;;;;;;;;;;5077905;28;20210;-77
2023/12/14 06:13:49;;;;;;;7.73;4.33;;;;;;;;;;5084444;28;20222;-77
2023/12/14 06:16:17;;;;;;;7.87;4.43;;;;;;;;;;5079074;28;20226;-78
2023/12/14 06:18:43;;;;;;;8.70;4.53;;;;;;;;;;5053318;28;20226;-79
2023/12/14 06:21:09;;;;;;;6.50;4.23;;;;;;;;;;5071692;28;20185;-77
2023/12/14 06:23:36;;;;;;;5.37;4.00;;;;;;;;;;5080569;28;20684;-75
2023/12/14 06:26:03;;;;;;;6.13;4.20;;;;;;;;;;5081824;28;20213;-76
2023/12/14 06:28:30;;;;;;;8.07;4.90;;;;;;;;;;5085788;28;20218;-78
2023/12/14 06:30:57;;;;;;;10.67;4.83;;;;;;;;;;5080717;28;20237;-76
2023/12/14 06:33:23;;;;;;;6.63;4.07;;;;;;;;;;5078498;28;20293;-75
2023/12/14 06:35:49;;;;;;;7.03;4.13;;;;;;;;;;5060937;28;20590;-75
2023/12/14 06:38:15;;;;;;;6.37;4.20;;;;;;;;;;5075226;28;20210;-75
2023/12/14 06:40:42;;;;;;;8.93;4.57;;;;;;;;;;5078988;28;20233;-76
2023/12/14 06:43:08;;;;;;;6.13;4.10;;;;;;;;;;5083160;28;20202;-76
2023/12/14 06:45:37;;;;;;;6.60;4.10;;;;;;;;;;5082170;28;20238;-73
2023/12/14 06:48:03;;;;;;;5.83;3.83;;;;;;;;;;5079661;28;20657;-74
2023/12/14 06:50:29;;;;;;;7.43;4.27;;;;;;;;;;5065193;28;20219;-74
2023/12/14 06:52:55;;;;;;;6.53;4.33;;;;;;;;;;5066751;28;20208;-70
2023/12/14 06:55:21;;;;;;;7.23;4.23;;;;;;;;;;5048321;28;20349;-74
2023/12/14 06:57:47;;;;;;;7.60;4.67;;;;;;;;;;5078378;28;20355;-75
2023/12/14 07:00:13;;;;;;;7.20;4.23;;;;;;;;;;5081917;28;20673;-77
2023/12/14 07:02:39;;;;;;;5.87;3.70;;;;;;;;;;5077528;28;20195;-74
2023/12/14 07:05:05;;;;;;;5.60;3.63;;;;;;;;;;5079026;28;20210;-73
2023/12/14 07:07:31;;;;;;;7.30;4.60;;;;;;;;;;5078273;28;20214;-76
2023/12/14 07:09:57;;;;;;;4.43;3.27;;;;;;;;;;5069044;28;20210;-76
2023/12/14 07:12:23;;;;;;;6.23;3.67;;;;;;;;;;5074031;28;20227;-76
2023/12/14 07:14:50;;;;;;;6.83;3.33;;;;;;;;;;5074229;28;20270;-76
2023/12/14 07:17:16;;;;;;;6.13;3.53;;;;;;;;;;5069899;28;20210;-75
2023/12/14 07:19:42;;;;;;;8.17;4.10;;;;;;;;;;5077724;28;20758;-76
2023/12/14 07:22:08;;;;;;;4.47;3.43;;;;;;;;;;5077424;28;20290;-76
2023/12/14 07:24:34;;;;;;;6.63;3.80;;;;;;;;;;5077387;28;20882;-74
2023/12/14 07:27:00;;;;;;;8.40;4.70;;;;;;;;;;5079298;28;20263;-74
2023/12/14 07:29:27;;;;;;;4.83;3.90;;;;;;;;;;5077897;28;20222;-74
2023/12/14 07:31:53;;;;;;;7.13;4.20;;;;;;;;;;5058895;28;20705;-74
2023/12/14 07:34:20;;;;;;;9.23;4.50;;;;;;;;;;5069596;28;20229;-75
2023/12/14 07:36:46;;;;;;;9.37;4.90;;;;;;;;;;5075425;28;20203;-74
2023/12/14 07:39:12;;;;;;;9.33;4.30;;;;;;;;;;5071535;28;20181;-73
2023/12/14 07:41:38;;;;;;;8.33;4.83;;;;;;;;;;5074896;28;20194;-72
2023/12/14 07:44:04;;;;;;;9.87;4.87;;;;;;;;;;5078892;28;20202;-73
2023/12/14 07:46:30;;;;;;;8.40;4.73;;;;;;;;;;5076465;28;20219;-74
2023/12/14 07:48:56;;;;;;;9.77;5.73;;;;;;;;;;5080401;28;20301;-74
2023/12/14 07:51:22;;;;;;;9.03;5.50;;;;;;;;;;5076589;28;20179;-74
2023/12/14 07:53:48;;;;;;;10.77;5.40;;;;;;;;;;5060144;28;20178;-74
2023/12/14 07:56:14;;;;;;;11.17;7.07;;;;;;;;;;5080078;28;20306;-73
2023/12/14 07:58:40;;;;;;;10.43;5.03;;;;;;;;;;5076814;28;20293;-74
2023/12/14 08:01:06;;;;;;;10.10;6.20;;;;;;;;;;5077919;28;20234;-74
2023/12/14 08:03:33;;;;;;;12.83;5.67;;;;;;;;;;5078107;28;20215;-74
2023/12/14 08:05:59;;;;;;;9.40;6.07;;;;;;;;;;5080629;28;20221;-73
2023/12/14 08:08:25;;;;;;;8.80;5.87;;;;;;;;;;5073222;28;20649;-74
2023/12/14 08:10:51;;;;;;;10.47;6.07;;;;;;;;;;5078882;28;20210;-74
2023/12/14 08:13:17;;;;;;;12.77;6.57;;;;;;;;;;5077270;28;20267;-73
2023/12/14 08:15:43;;;;;;;10.07;6.47;;;;;;;;;;5069632;28;20713;-75
2023/12/14 08:18:09;;;;;;;11.60;6.53;;;;;;;;;;5078486;28;20170;-74
2023/12/14 08:20:35;;;;;;;14.83;6.50;;;;;;;;;;5077382;28;20898;-73
2023/12/14 08:23:01;;;;;;;10.20;6.47;;;;;;;;;;5067677;28;20203;-74
2023/12/14 08:25:27;;;;;;;14.90;6.67;;;;;;;;;;5079969;28;20760;-74
2023/12/14 08:27:53;;;;;;;8.03;5.53;;;;;;;;;;5074828;28;20286;-71
2023/12/14 08:30:19;;;;;;;11.13;6.13;;;;;;;;;;5078647;28;20256;-73
2023/12/14 08:32:45;;;;;;;11.67;6.80;;;;;;;;;;5080771;28;20181;-74
2023/12/14 08:35:11;;;;;;;9.97;6.53;;;;;;;;;;5074382;28;20209;-74
2023/12/14 08:37:37;;;;;;;10.30;5.43;;;;;;;;;;5077122;28;20712;-74
2023/12/14 08:40:03;;;;;;;11.37;5.70;;;;;;;;;;5055657;28;20206;-73
2023/12/14 08:42:29;;;;;;;9.50;6.17;;;;;;;;;;5077228;28;20622;-74
2023/12/14 08:44:55;;;;;;;13.93;6.93;;;;;;;;;;5080725;28;20258;-74
2023/12/14 08:47:21;;;;;;;10.87;6.27;;;;;;;;;;5076330;28;20301;-74
2023/12/14 08:49:47;;;;;;;11.90;6.43;;;;;;;;;;5079127;28;20199;-74
2023/12/14 08:52:14;;;;;;;11.30;6.40;;;;;;;;;;5078288;28;20203;-73
2023/12/14 08:54:43;;;;;;;11.70;6.30;;;;;;;;;;5077203;28;20281;-74
2023/12/14 08:57:09;;;;;;;9.97;6.20;;;;;;;;;;5077326;28;20191;-74
2023/12/14 08:59:35;;;;;;;11.97;6.60;;;;;;;;;;5078463;28;20183;-72
2023/12/14 09:02:01;;;;;;;11.90;6.73;;;;;;;;;;5080131;28;20202;-75
2023/12/14 09:04:27;;;;;;;9.03;5.53;;;;;;;;;;5076828;28;20621;-75
2023/12/14 09:06:53;;;;;;;10.90;6.67;;;;;;;;;;5077420;28;20225;-72
2023/12/14 09:09:19;;;;;;;9.10;6.40;;;;;;;;;;5057854;28;20213;-75
2023/12/14 09:11:45;;;;;;;13.27;6.50;;;;;;;;;;5080408;28;20183;-76
2023/12/14 09:14:11;;;;;;;14.20;6.27;;;;;;;;;;5076810;28;20221;-75
2023/12/14 09:16:37;;;;;;;10.00;6.00;;;;;;;;;;5077170;28;20790;-74
2023/12/14 09:19:03;;;;;;;11.23;6.90;;;;;;;;;;5079240;28;20210;-73
2023/12/14 09:21:30;;;;;;;12.27;6.80;;;;;;;;;;5075490;28;20295;-74
2023/12/14 09:23:56;;;;;;;11.80;6.73;;;;;;;;;;5067616;28;20748;-74
2023/12/14 09:26:22;;;;;;;15.50;6.97;;;;;;;;;;5076119;28;20272;-73
2023/12/14 09:28:48;;;;;;;10.97;6.50;;;;;;;;;;5075541;28;20202;-74
2023/12/14 09:31:15;;;;;;;9.43;5.80;;;;;;;;;;5078376;28;20194;-74
2023/12/14 09:33:41;;;;;;;12.90;7.33;;;;;;;;;;5075954;28;20225;-73
2023/12/14 09:36:08;;;;;;;15.53;7.37;;;;;;;;;;5074674;28;20258;-74
2023/12/14 09:38:35;;;;;;;12.17;6.87;;;;;;;;;;5074075;28;20175;-73
2023/12/14 09:41:02;;;;;;;11.47;6.43;;;;;;;;;;5078220;28;20288;-76
2023/12/14 09:43:28;;;;;;;15.03;6.73;;;;;;;;;;5079904;28;20226;-74
2023/12/14 09:45:55;;;;;;;11.10;6.20;;;;;;;;;;5080748;28;20233;-74
2023/12/14 09:48:22;;;;;;;12.43;7.00;;;;;;;;;;5076709;28;20231;-75
2023/12/14 09:50:49;;;;;;;12.97;6.80;;;;;;;;;;5070833;28;20641;-74
2023/12/14 09:53:16;;;;;;;10.30;6.33;;;;;;;;;;5073236;28;20302;-75
2023/12/14 09:55:42;;;;;;;12.47;6.50;;;;;;;;;;5081150;28;20214;-76
2023/12/14 09:58:09;;;;;;;9.73;5.70;;;;;;;;;;5082136;28;20205;-76
2023/12/14 10:00:42;;;;;;;13.73;6.97;;;;;;;;;;5079851;28;20222;-74
2023/12/14 10:03:18;;;;;;;11.67;6.00;;;;;;;;;;5077634;28;20193;-74
2023/12/14 10:05:44;;;;;;;10.63;6.10;;;;;;;;;;5079811;28;20203;-73
2023/12/14 10:08:10;;;;;;;11.00;6.30;;;;;;;;;;5078487;28;20308;-74
2023/12/14 10:10:36;;;;;;;11.70;7.10;;;;;;;;;;5081805;28;20656;-74
2023/12/14 10:13:01;;;;;;;12.90;6.83;;;;;;;;;;5079689;28;20210;-74
2023/12/14 10:15:28;;;;;;;11.87;6.33;;;;;;;;;;5080545;28;20596;-74
2023/12/14 10:17:54;;;;;;;8.73;5.97;;;;;;;;;;5083530;28;20186;-72
2023/12/14 10:20:26;;;;;;;11.20;6.43;;;;;;;;;;5079526;28;20259;-74
2023/12/14 10:22:52;;;;;;;10.10;6.23;;;;;;;;;;5078888;28;20252;-74
2023/12/14 10:25:21;;;;;;;14.77;7.27;;;;;;;;;;5080148;28;20290;-75
2023/12/14 10:27:52;;;;;;;22.77;10.67;;;;;;;;;;5079956;28;20598;-73
2023/12/14 10:30:19;;;;;;;11.77;6.37;;;;;;;;;;5081225;28;20235;-74
2023/12/14 10:32:47;;;;;;;14.90;6.90;;;;;;;;;;5079181;28;20263;-74
2023/12/14 10:35:15;;;;;;;9.00;5.77;;;;;;;;;;5076323;28;20214;-72
2023/12/14 10:37:42;;;;;;;9.60;5.43;;;;;;;;;;5077677;28;20214;-75
2023/12/14 10:40:12;;;;;;;10.47;5.87;;;;;;;;;;5077227;28;20248;-75
2023/12/14 10:42:39;;;;;;;9.97;6.73;;;;;;;;;;5078341;28;20241;-74
2023/12/14 10:45:06;;;;;;;9.23;5.73;;;;;;;;;;5081823;28;20653;-73
2023/12/14 10:47:33;;;;;;;11.57;6.63;;;;;;;;;;5078967;28;20653;-75
2023/12/14 10:50:01;;;;;;;10.60;6.00;;;;;;;;;;5082573;28;20210;-74
2023/12/14 10:52:28;;;;;;;11.17;5.83;;;;;;;;;;5075998;28;20225;-74
2023/12/14 10:54:57;;;;;;;13.60;6.87;;;;;;;;;;5081484;28;20203;-73
2023/12/14 10:57:23;;;;;;;11.37;6.43;;;;;;;;;;5079057;28;20223;-71
2023/12/14 10:59:50;;;;;;;11.20;7.03;;;;;;;;;;5079781;28;20194;-74
2023/12/14 11:02:16;;;;;;;11.13;6.97;;;;;;;;;;5079821;28;20692;-74
2023/12/14 11:04:59;;;;;;;14.00;6.60;;;;;;;;;;5079817;28;20215;-74
2023/12/14 11:07:47;;;;;;;11.87;6.47;;;;;;;;;;5074994;28;20213;-74
2023/12/14 11:10:13;;;;;;;10.37;6.83;;;;;;;;;;5079671;28;20795;-71
2023/12/14 11:12:51;;;;;;;11.33;6.90;;;;;;;;;;5079671;28;20222;-74
2023/12/14 11:15:18;;;;;;;12.50;6.17;;;;;;;;;;5076213;28;20186;-73
2023/12/14 11:18:04;;;;;;;9.03;6.00;;;;;;;;;;5079891;28;20178;-75
2023/12/14 11:20:30;;;;;;;13.13;6.53;;;;;;;;;;5073819;28;20761;-74
2023/12/14 11:22:57;;;;;;;10.13;6.53;;;;;;;;;;5079170;28;20263;-74
2023/12/14 11:25:24;;;;;;;10.50;6.43;;;;;;;;;;5078252;28;20214;-73
2023/12/14 11:27:50;;;;;;;10.87;6.80;;;;;;;;;;5079414;28;20267;-74
2023/12/14 11:30:17;;;;;;;13.73;6.23;;;;;;;;;;5062445;28;20174;-74
2023/12/14 11:32:43;;;;;;;10.83;6.37;;;;;;;;;;5078259;28;20208;-73
2023/12/14 11:35:12;;;;;;;10.53;6.17;;;;;;;;;;5076150;28;20203;-74
2023/12/14 11:37:38;;;;;;;10.43;5.60;;;;;;;;;;5078600;28;20600;-74
2023/12/14 11:40:07;;;;;;;12.00;5.87;;;;;;;;;;5071505;28;20253;-72
2023/12/14 11:42:33;;;;;;;11.90;6.13;;;;;;;;;;5078415;28;20225;-73
2023/12/14 11:44:59;;;;;;;11.73;6.67;;;;;;;;;;5081797;28;20178;-73
2023/12/14 11:47:25;;;;;;;10.10;5.93;;;;;;;;;;5075188;28;20217;-74
2023/12/14 11:49:51;;;;;;;10.33;5.90;;;;;;;;;;5080244;28;20199;-74
2023/12/14 11:52:18;;;;;;;12.80;6.73;;;;;;;;;;5060292;28;20259;-74
2023/12/14 11:54:44;;;;;;;12.47;6.03;;;;;;;;;;5077811;28;20276;-74
2023/12/14 11:57:10;;;;;;;10.50;5.63;;;;;;;;;;5080219;28;20243;-74
2023/12/14 11:59:37;;;;;;;9.20;5.77;;;;;;;;;;5077793;28;20269;-74
2023/12/14 12:02:04;;;;;;;10.20;6.00;;;;;;;;;;5081103;28;20285;-73
2023/12/14 12:04:30;;;;;;;9.60;5.67;;;;;;;;;;5077559;28;20650;-75
2023/12/14 12:07:09;;;;;;;11.53;6.13;;;;;;;;;;5078416;28;20230;-74
2023/12/14 12:09:36;;;;;;;9.43;6.03;;;;;;;;;;5074549;28;20589;-74
2023/12/14 12:12:03;;;;;;;8.13;5.23;;;;;;;;;;5078885;28;20181;-75
2023/12/14 12:14:29;;;;;;;9.30;5.43;;;;;;;;;;5078844;28;20232;-74
2023/12/14 12:16:55;;;;;;;8.93;5.27;;;;;;;;;;5066957;28;20210;-74
2023/12/14 12:19:21;;;;;;;9.47;4.57;;;;;;;;;;5080989;28;20680;-74
2023/12/14 12:21:47;;;;;;;8.30;5.10;;;;;;;;;;5079441;28;20207;-74
2023/12/14 12:24:13;;;;;;;7.67;4.43;;;;;;;;;;5079336;28;20211;-74
2023/12/14 12:26:39;;;;;;;9.97;5.50;;;;;;;;;;5076987;28;20210;-75
2023/12/14 12:29:06;;;;;;;7.63;4.67;;;;;;;;;;5080978;28;20221;-76
2023/12/14 12:31:34;;;;;;;11.17;5.73;;;;;;;;;;5076961;28;20206;-74
2023/12/14 12:34:00;;;;;;;10.30;6.07;;;;;;;;;;5076587;28;20203;-74
2023/12/14 12:36:26;;;;;;;9.30;5.17;;;;;;;;;;5078480;28;20215;-74
2023/12/14 12:38:52;;;;;;;12.13;6.43;;;;;;;;;;5071421;28;20175;-74
2023/12/14 12:41:18;;;;;;;8.80;5.20;;;;;;;;;;5080429;28;20207;-74
2023/12/14 12:43:44;;;;;;;9.47;5.83;;;;;;;;;;5078284;28;20206;-74
2023/12/14 12:46:10;;;;;;;10.07;5.37;;;;;;;;;;5077646;28;20707;-74
2023/12/14 12:48:37;;;;;;;10.47;6.37;;;;;;;;;;5077256;28;20210;-75
2023/12/14 12:51:03;;;;;;;8.87;5.30;;;;;;;;;;5079898;28;20181;-74
2023/12/14 12:53:29;;;;;;;7.23;4.97;;;;;;;;;;5076867;28;20186;-75
2023/12/14 12:55:55;;;;;;;8.60;5.80;;;;;;;;;;5079488;28;20225;-75
2023/12/14 12:58:21;;;;;;;8.63;5.33;;;;;;;;;;5077803;28;20294;-74
2023/12/14 13:00:47;;;;;;;9.63;5.67;;;;;;;;;;5076774;28;20234;-75
2023/12/14 13:03:13;;;;;;;8.87;5.20;;;;;;;;;;5076423;28;20179;-72
2023/12/14 13:05:39;;;;;;;10.10;5.37;;;;;;;;;;5079541;28;20216;-74
2023/12/14 13:08:05;;;;;;;9.60;5.70;;;;;;;;;;5075084;28;20285;-76
2023/12/14 13:10:31;;;;;;;9.27;6.30;;;;;;;;;;5079437;28;20206;-74
2023/12/14 13:12:57;;;;;;;9.07;5.13;;;;;;;;;;5077346;28;20222;-74
2023/12/14 13:15:25;;;;;;;8.27;5.03;;;;;;;;;;5079087;28;20218;-73
2023/12/14 13:17:51;;;;;;;9.30;5.47;;;;;;;;;;5076705;28;20772;-74
2023/12/14 13:20:18;;;;;;;17.73;5.63;;;;;;;;;;5080709;28;20841;-74
2023/12/14 13:22:44;;;;;;;12.23;6.77;;;;;;;;;;5075895;28;20247;-74
2023/12/14 13:25:10;;;;;;;10.97;6.50;;;;;;;;;;5077369;28;20211;-74
2023/12/14 13:27:36;;;;;;;10.97;6.27;;;;;;;;;;5060177;28;20689;-74
2023/12/14 13:30:03;;;;;;;9.47;6.30;;;;;;;;;;5084084;28;20253;-73
2023/12/14 13:32:29;;;;;;;12.87;7.43;;;;;;;;;;5080823;28;20210;-73
2023/12/14 13:34:55;;;;;;;11.13;6.47;;;;;;;;;;5082101;28;20211;-73
2023/12/14 13:37:20;;;;;;;13.37;6.70;;;;;;;;;;5085004;28;20608;-74
2023/12/14 13:39:48;;;;;;;11.67;7.13;;;;;;;;;;5073428;28;20238;-74
2023/12/14 13:42:15;;;;;;;10.73;6.47;;;;;;;;;;5083537;28;20177;-74
2023/12/14 13:44:41;;;;;;;9.17;5.67;;;;;;;;;;5080282;28;20171;-73
2023/12/14 13:47:07;;;;;;;10.77;6.60;;;;;;;;;;5082974;28;20687;-74
2023/12/14 13:49:34;;;;;;;8.13;5.97;;;;;;;;;;5080493;28;20213;-75
2023/12/14 13:52:00;;;;;;;11.93;5.77;;;;;;;;;;5071860;28;20207;-74
2023/12/14 13:54:26;;;;;;;11.27;6.13;;;;;;;;;;5082251;28;20688;-74
2023/12/14 13:56:53;;;;;;;10.97;6.53;;;;;;;;;;5082773;28;20206;-74
2023/12/14 13:59:19;;;;;;;10.00;6.67;;;;;;;;;;5080712;28;20311;-74
2023/12/14 14:01:45;;;;;;;10.60;6.30;;;;;;;;;;5079650;28;20207;-75
2023/12/14 14:04:11;;;;;;;15.27;7.37;;;;;;;;;;5082513;28;20202;-74
2023/12/14 14:06:37;;;;;;;10.87;7.10;;;;;;;;;;5076561;28;20226;-74
2023/12/14 14:09:04;;;;;;;12.27;6.80;;;;;;;;;;5074445;28;20183;-73
2023/12/14 14:11:30;;;;;;;10.90;6.87;;;;;;;;;;5076547;28;20285;-74
2023/12/14 14:13:56;;;;;;;9.97;6.33;;;;;;;;;;5081401;28;20224;-75
2023/12/14 14:16:22;;;;;;;10.07;6.07;;;;;;;;;;5082349;28;20744;-74
2023/12/14 14:18:48;;;;;;;11.27;6.67;;;;;;;;;;5080732;28;20215;-73
2023/12/14 14:21:13;;;;;;;15.17;6.83;;;;;;;;;;5081629;28;20179;-73
2023/12/14 14:23:40;;;;;;;12.73;5.77;;;;;;;;;;5081757;28;20209;-73
2023/12/14 14:26:06;;;;;;;10.73;6.53;;;;;;;;;;5081584;28;20674;-72
2023/12/14 14:28:32;;;;;;;13.20;6.80;;;;;;;;;;5080288;28;20298;-72
2023/12/14 14:30:59;;;;;;;11.73;6.53;;;;;;;;;;5079934;28;20297;-74